sensor_id;sensor_type;location;lat;lon;timestamp;P1;durP1;ratioP1;P2;durP2;ratioP2
5303;SDS011;2674;49.722;10.892;2022-08-06T00:01:33;2.00;;;1.57;;
5303;SDS011;2674;49.722;10.892;2022-08-06T00:03:59;3.33;;;1.60;;
5303;SDS011;2674;49.722;10.892;2022-08-06T00:06:25;6.10;;;1.50;;
5303;SDS011;2674;49.722;10.892;2022-08-06T00:08:52;2.17;;;1.80;;
5303;SDS011;2674;49.722;10.892;2022-08-06T00:11:18;1.60;;;1.50;;
5303;SDS011;2674;49.722;10.892;2022-08-06T00:13:43;1.70;;;1.60;;
5303;SDS011;2674;49.722;10.892;2022-08-06T00:16:09;2.90;;;1.60;;
5303;SDS011;2674;49.722;10.892;2022-08-06T00:18:35;2.00;;;1.80;;
5303;SDS011;2674;49.722;10.892;2022-08-06T00:21:01;2.40;;;1.67;;
5303;SDS011;2674;49.722;10.892;2022-08-06T00:23:27;11.80;;;1.73;;
5303;SDS011;2674;49.722;10.892;2022-08-06T00:25:53;2.90;;;1.30;;
5303;SDS011;2674;49.722;10.892;2022-08-06T00:28:20;7.90;;;1.93;;
5303;SDS011;2674;49.722;10.892;2022-08-06T00:30:47;1.60;;;1.60;;
5303;SDS011;2674;49.722;10.892;2022-08-06T00:33:13;3.37;;;1.93;;
5303;SDS011;2674;49.722;10.892;2022-08-06T00:35:39;4.20;;;2.40;;
5303;SDS011;2674;49.722;10.892;2022-08-06T00:38:05;2.10;;;2.00;;
5303;SDS011;2674;49.722;10.892;2022-08-06T00:40:31;2.00;;;1.90;;
5303;SDS011;2674;49.722;10.892;2022-08-06T00:42:58;3.37;;;1.90;;
5303;SDS011;2674;49.722;10.892;2022-08-06T00:45:26;5.53;;;2.20;;
5303;SDS011;2674;49.722;10.892;2022-08-06T00:47:52;4.23;;;1.80;;
5303;SDS011;2674;49.722;10.892;2022-08-06T00:50:18;1.70;;;1.60;;
5303;SDS011;2674;49.722;10.892;2022-08-06T00:52:44;1.80;;;1.70;;
5303;SDS011;2674;49.722;10.892;2022-08-06T00:55:11;1.80;;;1.70;;
5303;SDS011;2674;49.722;10.892;2022-08-06T00:57:37;2.83;;;1.90;;
5303;SDS011;2674;49.722;10.892;2022-08-06T01:00:04;2.10;;;2.00;;
5303;SDS011;2674;49.722;10.892;2022-08-06T01:02:33;3.67;;;2.07;;
5303;SDS011;2674;49.722;10.892;2022-08-06T01:04:59;4.53;;;2.40;;
5303;SDS011;2674;49.722;10.892;2022-08-06T01:07:26;2.43;;;2.20;;
5303;SDS011;2674;49.722;10.892;2022-08-06T01:09:52;5.43;;;2.40;;
5303;SDS011;2674;49.722;10.892;2022-08-06T01:12:18;4.07;;;2.30;;
5303;SDS011;2674;49.722;10.892;2022-08-06T01:14:44;4.93;;;2.33;;
5303;SDS011;2674;49.722;10.892;2022-08-06T01:25:39;2.40;;;2.00;;
5303;SDS011;2674;49.722;10.892;2022-08-06T01:28:26;2.67;;;1.97;;
5303;SDS011;2674;49.722;10.892;2022-08-06T01:31:07;4.40;;;1.80;;
5303;SDS011;2674;49.722;10.892;2022-08-06T01:33:37;2.43;;;2.20;;
5303;SDS011;2674;49.722;10.892;2022-08-06T01:36:07;3.67;;;2.40;;
5303;SDS011;2674;49.722;10.892;2022-08-06T01:38:47;5.80;;;1.70;;
5303;SDS011;2674;49.722;10.892;2022-08-06T01:41:16;4.00;;;2.27;;
5303;SDS011;2674;49.722;10.892;2022-08-06T01:44:13;3.03;;;2.00;;
5303;SDS011;2674;49.722;10.892;2022-08-06T01:46:52;4.60;;;2.00;;
5303;SDS011;2674;49.722;10.892;2022-08-06T01:49:26;2.53;;;1.70;;
5303;SDS011;2674;49.722;10.892;2022-08-06T01:51:57;3.70;;;2.10;;
5303;SDS011;2674;49.722;10.892;2022-08-06T01:54:24;1.83;;;1.63;;
5303;SDS011;2674;49.722;10.892;2022-08-06T01:56:54;1.73;;;1.63;;
5303;SDS011;2674;49.722;10.892;2022-08-06T01:59:24;3.60;;;1.93;;
5303;SDS011;2674;49.722;10.892;2022-08-06T02:01:54;3.17;;;2.30;;
5303;SDS011;2674;49.722;10.892;2022-08-06T02:04:22;2.10;;;1.90;;
5303;SDS011;2674;49.722;10.892;2022-08-06T02:06:51;3.13;;;2.07;;
5303;SDS011;2674;49.722;10.892;2022-08-06T02:09:20;3.20;;;2.40;;
5303;SDS011;2674;49.722;10.892;2022-08-06T02:14:20;2.73;;;2.30;;
5303;SDS011;2674;49.722;10.892;2022-08-06T02:16:49;4.07;;;2.33;;
5303;SDS011;2674;49.722;10.892;2022-08-06T02:19:16;4.33;;;2.37;;
5303;SDS011;2674;49.722;10.892;2022-08-06T02:21:45;6.63;;;2.43;;
5303;SDS011;2674;49.722;10.892;2022-08-06T02:24:13;3.47;;;2.50;;
5303;SDS011;2674;49.722;10.892;2022-08-06T02:26:40;2.73;;;2.53;;
5303;SDS011;2674;49.722;10.892;2022-08-06T02:29:08;2.17;;;2.07;;
5303;SDS011;2674;49.722;10.892;2022-08-06T02:31:39;2.03;;;1.93;;
5303;SDS011;2674;49.722;10.892;2022-08-06T02:34:04;2.20;;;2.10;;
5303;SDS011;2674;49.722;10.892;2022-08-06T02:36:36;3.70;;;2.50;;
5303;SDS011;2674;49.722;10.892;2022-08-06T02:39:07;6.10;;;2.40;;
5303;SDS011;2674;49.722;10.892;2022-08-06T02:41:45;3.30;;;2.00;;
5303;SDS011;2674;49.722;10.892;2022-08-06T02:46:54;2.83;;;2.13;;
5303;SDS011;2674;49.722;10.892;2022-08-06T02:49:25;3.20;;;2.53;;
5303;SDS011;2674;49.722;10.892;2022-08-06T02:51:54;2.83;;;2.30;;
5303;SDS011;2674;49.722;10.892;2022-08-06T02:57:02;5.10;;;2.87;;
5303;SDS011;2674;49.722;10.892;2022-08-06T02:59:32;2.77;;;2.20;;
5303;SDS011;2674;49.722;10.892;2022-08-06T03:02:02;2.40;;;2.13;;
5303;SDS011;2674;49.722;10.892;2022-08-06T03:04:31;2.77;;;2.37;;
5303;SDS011;2674;49.722;10.892;2022-08-06T03:06:59;2.23;;;2.03;;
5303;SDS011;2674;49.722;10.892;2022-08-06T03:09:30;2.43;;;2.23;;
5303;SDS011;2674;49.722;10.892;2022-08-06T03:11:57;2.90;;;2.70;;
5303;SDS011;2674;49.722;10.892;2022-08-06T03:14:24;2.13;;;2.00;;
5303;SDS011;2674;49.722;10.892;2022-08-06T03:16:51;8.33;;;2.60;;
5303;SDS011;2674;49.722;10.892;2022-08-06T03:19:19;2.47;;;2.30;;
5303;SDS011;2674;49.722;10.892;2022-08-06T03:21:47;5.70;;;2.63;;
5303;SDS011;2674;49.722;10.892;2022-08-06T03:24:13;2.70;;;2.50;;
5303;SDS011;2674;49.722;10.892;2022-08-06T03:26:41;7.17;;;2.90;;
5303;SDS011;2674;49.722;10.892;2022-08-06T03:29:07;2.67;;;2.47;;
5303;SDS011;2674;49.722;10.892;2022-08-06T03:31:35;2.97;;;2.67;;
5303;SDS011;2674;49.722;10.892;2022-08-06T03:34:01;2.63;;;2.43;;
5303;SDS011;2674;49.722;10.892;2022-08-06T03:36:28;4.70;;;3.40;;
5303;SDS011;2674;49.722;10.892;2022-08-06T03:38:59;2.87;;;2.67;;
5303;SDS011;2674;49.722;10.892;2022-08-06T03:41:29;3.40;;;3.10;;
5303;SDS011;2674;49.722;10.892;2022-08-06T03:43:59;2.80;;;2.70;;
5303;SDS011;2674;49.722;10.892;2022-08-06T03:49:08;3.23;;;2.40;;
5303;SDS011;2674;49.722;10.892;2022-08-06T03:51:37;3.23;;;2.93;;
5303;SDS011;2674;49.722;10.892;2022-08-06T03:54:04;8.80;;;3.50;;
5303;SDS011;2674;49.722;10.892;2022-08-06T03:56:32;3.47;;;2.60;;
5303;SDS011;2674;49.722;10.892;2022-08-06T03:59:02;5.37;;;2.83;;
5303;SDS011;2674;49.722;10.892;2022-08-06T04:01:31;4.40;;;4.10;;
5303;SDS011;2674;49.722;10.892;2022-08-06T04:04:01;3.40;;;3.10;;
5303;SDS011;2674;49.722;10.892;2022-08-06T04:06:28;3.50;;;3.07;;
5303;SDS011;2674;49.722;10.892;2022-08-06T04:08:55;3.50;;;3.20;;
5303;SDS011;2674;49.722;10.892;2022-08-06T04:11:23;3.80;;;3.07;;
5303;SDS011;2674;49.722;10.892;2022-08-06T04:13:50;3.33;;;3.10;;
5303;SDS011;2674;49.722;10.892;2022-08-06T04:16:16;8.03;;;3.50;;
5303;SDS011;2674;49.722;10.892;2022-08-06T04:18:43;5.47;;;3.67;;
5303;SDS011;2674;49.722;10.892;2022-08-06T04:21:11;6.63;;;3.23;;
5303;SDS011;2674;49.722;10.892;2022-08-06T04:23:40;5.03;;;2.60;;
5303;SDS011;2674;49.722;10.892;2022-08-06T04:26:07;7.63;;;3.10;;
5303;SDS011;2674;49.722;10.892;2022-08-06T04:28:37;4.20;;;3.00;;
5303;SDS011;2674;49.722;10.892;2022-08-06T04:31:06;3.00;;;2.80;;
5303;SDS011;2674;49.722;10.892;2022-08-06T04:33:34;2.53;;;2.33;;
5303;SDS011;2674;49.722;10.892;2022-08-06T04:36:01;10.20;;;3.03;;
5303;SDS011;2674;49.722;10.892;2022-08-06T04:38:32;3.97;;;2.50;;
5303;SDS011;2674;49.722;10.892;2022-08-06T04:40:58;7.70;;;3.50;;
5303;SDS011;2674;49.722;10.892;2022-08-06T04:43:25;5.27;;;4.00;;
5303;SDS011;2674;49.722;10.892;2022-08-06T04:45:51;3.93;;;2.33;;
5303;SDS011;2674;49.722;10.892;2022-08-06T04:48:18;2.83;;;2.63;;
5303;SDS011;2674;49.722;10.892;2022-08-06T04:50:45;3.47;;;2.30;;
5303;SDS011;2674;49.722;10.892;2022-08-06T04:53:15;4.40;;;2.93;;
5303;SDS011;2674;49.722;10.892;2022-08-06T04:55:42;3.17;;;2.27;;
5303;SDS011;2674;49.722;10.892;2022-08-06T04:58:10;2.80;;;2.40;;
5303;SDS011;2674;49.722;10.892;2022-08-06T05:00:39;2.30;;;2.20;;
5303;SDS011;2674;49.722;10.892;2022-08-06T05:03:09;4.40;;;2.70;;
5303;SDS011;2674;49.722;10.892;2022-08-06T05:05:42;3.30;;;2.27;;
5303;SDS011;2674;49.722;10.892;2022-08-06T05:08:12;3.47;;;1.97;;
5303;SDS011;2674;49.722;10.892;2022-08-06T05:10:56;2.77;;;2.20;;
5303;SDS011;2674;49.722;10.892;2022-08-06T05:13:37;2.17;;;2.00;;
5303;SDS011;2674;49.722;10.892;2022-08-06T05:16:06;1.70;;;1.53;;
5303;SDS011;2674;49.722;10.892;2022-08-06T05:18:37;1.87;;;1.80;;
5303;SDS011;2674;49.722;10.892;2022-08-06T05:21:07;1.87;;;1.77;;
5303;SDS011;2674;49.722;10.892;2022-08-06T05:23:40;2.10;;;1.50;;
5303;SDS011;2674;49.722;10.892;2022-08-06T05:26:10;1.37;;;1.37;;
5303;SDS011;2674;49.722;10.892;2022-08-06T05:28:40;3.37;;;1.33;;
5303;SDS011;2674;49.722;10.892;2022-08-06T05:31:06;2.30;;;2.20;;
5303;SDS011;2674;49.722;10.892;2022-08-06T05:33:33;2.27;;;1.60;;
5303;SDS011;2674;49.722;10.892;2022-08-06T05:36:07;1.50;;;1.40;;
5303;SDS011;2674;49.722;10.892;2022-08-06T05:38:38;3.50;;;1.90;;
5303;SDS011;2674;49.722;10.892;2022-08-06T05:41:09;2.07;;;1.87;;
5303;SDS011;2674;49.722;10.892;2022-08-06T05:43:36;1.63;;;1.40;;
5303;SDS011;2674;49.722;10.892;2022-08-06T05:46:08;1.63;;;1.53;;
5303;SDS011;2674;49.722;10.892;2022-08-06T05:48:37;2.83;;;0.97;;
5303;SDS011;2674;49.722;10.892;2022-08-06T05:51:09;2.13;;;1.27;;
5303;SDS011;2674;49.722;10.892;2022-08-06T05:53:42;2.03;;;1.57;;
5303;SDS011;2674;49.722;10.892;2022-08-06T05:56:16;4.40;;;1.50;;
5303;SDS011;2674;49.722;10.892;2022-08-06T05:58:51;1.77;;;1.20;;
5303;SDS011;2674;49.722;10.892;2022-08-06T06:01:22;3.30;;;1.63;;
5303;SDS011;2674;49.722;10.892;2022-08-06T06:03:49;1.40;;;1.30;;
5303;SDS011;2674;49.722;10.892;2022-08-06T06:06:18;1.20;;;1.20;;
5303;SDS011;2674;49.722;10.892;2022-08-06T06:08:49;3.50;;;1.10;;
5303;SDS011;2674;49.722;10.892;2022-08-06T06:11:15;4.47;;;1.30;;
5303;SDS011;2674;49.722;10.892;2022-08-06T06:13:42;2.87;;;1.50;;
5303;SDS011;2674;49.722;10.892;2022-08-06T06:24:09;2.03;;;1.20;;
5303;SDS011;2674;49.722;10.892;2022-08-06T06:27:01;0.87;;;0.87;;
5303;SDS011;2674;49.722;10.892;2022-08-06T06:29:53;6.40;;;1.10;;
5303;SDS011;2674;49.722;10.892;2022-08-06T06:41:08;0.90;;;0.87;;
5303;SDS011;2674;49.722;10.892;2022-08-06T06:46:09;2.20;;;1.13;;
5303;SDS011;2674;49.722;10.892;2022-08-06T06:48:46;4.00;;;1.17;;
5303;SDS011;2674;49.722;10.892;2022-08-06T06:53:46;2.17;;;1.00;;
5303;SDS011;2674;49.722;10.892;2022-08-06T06:56:16;1.00;;;1.00;;
5303;SDS011;2674;49.722;10.892;2022-08-06T07:01:53;3.07;;;0.77;;
5303;SDS011;2674;49.722;10.892;2022-08-06T07:04:20;0.80;;;0.80;;
5303;SDS011;2674;49.722;10.892;2022-08-06T07:06:49;1.00;;;0.90;;
5303;SDS011;2674;49.722;10.892;2022-08-06T07:09:25;8.23;;;0.90;;
5303;SDS011;2674;49.722;10.892;2022-08-06T07:11:55;0.90;;;0.90;;
5303;SDS011;2674;49.722;10.892;2022-08-06T07:14:23;4.43;;;1.10;;
5303;SDS011;2674;49.722;10.892;2022-08-06T07:16:52;0.90;;;0.90;;
5303;SDS011;2674;49.722;10.892;2022-08-06T07:19:20;1.47;;;0.97;;
5303;SDS011;2674;49.722;10.892;2022-08-06T07:21:48;1.33;;;0.77;;
5303;SDS011;2674;49.722;10.892;2022-08-06T07:24:18;2.50;;;0.80;;
5303;SDS011;2674;49.722;10.892;2022-08-06T07:26:48;6.40;;;0.90;;
5303;SDS011;2674;49.722;10.892;2022-08-06T07:29:17;4.33;;;1.20;;
5303;SDS011;2674;49.722;10.892;2022-08-06T07:31:44;0.90;;;0.80;;
5303;SDS011;2674;49.722;10.892;2022-08-06T07:34:13;3.90;;;1.00;;
5303;SDS011;2674;49.722;10.892;2022-08-06T07:36:42;0.60;;;0.60;;
5303;SDS011;2674;49.722;10.892;2022-08-06T07:39:24;1.00;;;0.90;;
5303;SDS011;2674;49.722;10.892;2022-08-06T07:41:54;5.00;;;1.07;;
5303;SDS011;2674;49.722;10.892;2022-08-06T07:44:24;7.33;;;1.23;;
5303;SDS011;2674;49.722;10.892;2022-08-06T07:46:54;1.53;;;0.97;;
5303;SDS011;2674;49.722;10.892;2022-08-06T07:49:25;1.63;;;0.80;;
5303;SDS011;2674;49.722;10.892;2022-08-06T07:51:58;1.27;;;0.80;;
5303;SDS011;2674;49.722;10.892;2022-08-06T07:54:25;1.10;;;1.00;;
5303;SDS011;2674;49.722;10.892;2022-08-06T07:56:55;1.13;;;1.03;;
5303;SDS011;2674;49.722;10.892;2022-08-06T07:59:22;2.03;;;1.00;;
5303;SDS011;2674;49.722;10.892;2022-08-06T08:01:49;1.87;;;0.70;;
5303;SDS011;2674;49.722;10.892;2022-08-06T08:04:16;1.90;;;0.97;;
5303;SDS011;2674;49.722;10.892;2022-08-06T08:07:02;0.80;;;0.80;;
5303;SDS011;2674;49.722;10.892;2022-08-06T08:09:30;2.60;;;1.07;;
5303;SDS011;2674;49.722;10.892;2022-08-06T08:11:57;1.10;;;1.00;;
5303;SDS011;2674;49.722;10.892;2022-08-06T08:14:23;4.50;;;0.83;;
5303;SDS011;2674;49.722;10.892;2022-08-06T08:16:50;3.43;;;1.20;;
5303;SDS011;2674;49.722;10.892;2022-08-06T08:19:27;1.17;;;1.07;;
5303;SDS011;2674;49.722;10.892;2022-08-06T08:21:57;2.10;;;0.60;;
5303;SDS011;2674;49.722;10.892;2022-08-06T08:24:25;1.47;;;0.80;;
5303;SDS011;2674;49.722;10.892;2022-08-06T08:26:53;0.80;;;0.80;;
5303;SDS011;2674;49.722;10.892;2022-08-06T08:29:20;0.90;;;0.83;;
5303;SDS011;2674;49.722;10.892;2022-08-06T08:31:46;5.00;;;0.90;;
5303;SDS011;2674;49.722;10.892;2022-08-06T08:34:12;2.13;;;0.83;;
5303;SDS011;2674;49.722;10.892;2022-08-06T08:36:38;1.63;;;0.93;;
5303;SDS011;2674;49.722;10.892;2022-08-06T08:39:05;4.73;;;0.90;;
5303;SDS011;2674;49.722;10.892;2022-08-06T08:41:42;0.77;;;0.60;;
5303;SDS011;2674;49.722;10.892;2022-08-06T08:44:20;2.10;;;0.80;;
5303;SDS011;2674;49.722;10.892;2022-08-06T08:46:48;2.57;;;0.80;;
5303;SDS011;2674;49.722;10.892;2022-08-06T08:49:19;1.83;;;0.97;;
5303;SDS011;2674;49.722;10.892;2022-08-06T08:51:50;1.80;;;1.00;;
5303;SDS011;2674;49.722;10.892;2022-08-06T08:54:18;2.50;;;0.90;;
5303;SDS011;2674;49.722;10.892;2022-08-06T08:56:47;4.10;;;0.73;;
5303;SDS011;2674;49.722;10.892;2022-08-06T08:59:14;3.67;;;0.90;;
5303;SDS011;2674;49.722;10.892;2022-08-06T09:01:41;3.97;;;1.00;;
5303;SDS011;2674;49.722;10.892;2022-08-06T09:04:07;0.80;;;0.80;;
5303;SDS011;2674;49.722;10.892;2022-08-06T09:06:34;1.77;;;0.97;;
5303;SDS011;2674;49.722;10.892;2022-08-06T09:09:01;1.27;;;0.90;;
5303;SDS011;2674;49.722;10.892;2022-08-06T09:11:34;1.53;;;0.90;;
5303;SDS011;2674;49.722;10.892;2022-08-06T09:14:01;2.60;;;0.90;;
5303;SDS011;2674;49.722;10.892;2022-08-06T09:16:29;3.03;;;0.93;;
5303;SDS011;2674;49.722;10.892;2022-08-06T09:18:58;12.07;;;1.00;;
5303;SDS011;2674;49.722;10.892;2022-08-06T09:21:25;6.20;;;0.80;;
5303;SDS011;2674;49.722;10.892;2022-08-06T09:23:51;5.63;;;0.83;;
5303;SDS011;2674;49.722;10.892;2022-08-06T09:26:17;2.80;;;1.20;;
5303;SDS011;2674;49.722;10.892;2022-08-06T09:28:44;1.10;;;0.70;;
5303;SDS011;2674;49.722;10.892;2022-08-06T09:33:51;1.17;;;0.80;;
5303;SDS011;2674;49.722;10.892;2022-08-06T09:36:19;0.60;;;0.60;;
5303;SDS011;2674;49.722;10.892;2022-08-06T09:41:13;1.23;;;0.90;;
5303;SDS011;2674;49.722;10.892;2022-08-06T09:43:41;1.80;;;0.90;;
5303;SDS011;2674;49.722;10.892;2022-08-06T09:46:08;4.43;;;1.20;;
5303;SDS011;2674;49.722;10.892;2022-08-06T09:48:34;0.60;;;0.60;;
5303;SDS011;2674;49.722;10.892;2022-08-06T09:51:00;0.73;;;0.70;;
5303;SDS011;2674;49.722;10.892;2022-08-06T09:53:26;4.57;;;1.10;;
5303;SDS011;2674;49.722;10.892;2022-08-06T09:55:54;0.90;;;0.80;;
5303;SDS011;2674;49.722;10.892;2022-08-06T10:01:12;2.73;;;0.90;;
5303;SDS011;2674;49.722;10.892;2022-08-06T10:03:39;1.23;;;0.80;;
5303;SDS011;2674;49.722;10.892;2022-08-06T10:06:06;0.80;;;0.80;;
5303;SDS011;2674;49.722;10.892;2022-08-06T10:08:34;2.37;;;0.80;;
5303;SDS011;2674;49.722;10.892;2022-08-06T10:11:00;0.93;;;0.93;;
5303;SDS011;2674;49.722;10.892;2022-08-06T10:13:28;0.83;;;0.83;;
5303;SDS011;2674;49.722;10.892;2022-08-06T10:15:56;1.73;;;0.97;;
5303;SDS011;2674;49.722;10.892;2022-08-06T10:18:35;1.10;;;1.02;;
5303;SDS011;2674;49.722;10.892;2022-08-06T10:23:32;0.90;;;0.90;;
5303;SDS011;2674;49.722;10.892;2022-08-06T10:25:59;0.67;;;0.67;;
5303;SDS011;2674;49.722;10.892;2022-08-06T10:28:32;1.17;;;0.83;;
5303;SDS011;2674;49.722;10.892;2022-08-06T10:30:59;2.40;;;1.00;;
5303;SDS011;2674;49.722;10.892;2022-08-06T10:33:29;1.33;;;0.80;;
5303;SDS011;2674;49.722;10.892;2022-08-06T10:36:03;3.33;;;0.77;;
5303;SDS011;2674;49.722;10.892;2022-08-06T10:38:33;5.37;;;1.00;;
5303;SDS011;2674;49.722;10.892;2022-08-06T10:41:06;1.33;;;0.70;;
5303;SDS011;2674;49.722;10.892;2022-08-06T10:43:34;3.33;;;0.80;;
5303;SDS011;2674;49.722;10.892;2022-08-06T10:46:03;1.43;;;0.73;;
5303;SDS011;2674;49.722;10.892;2022-08-06T10:48:31;1.57;;;1.00;;
5303;SDS011;2674;49.722;10.892;2022-08-06T10:50:58;2.50;;;0.93;;
5303;SDS011;2674;49.722;10.892;2022-08-06T10:53:24;1.60;;;0.97;;
5303;SDS011;2674;49.722;10.892;2022-08-06T10:55:51;1.60;;;0.80;;
5303;SDS011;2674;49.722;10.892;2022-08-06T10:58:17;2.40;;;0.80;;
5303;SDS011;2674;49.722;10.892;2022-08-06T11:00:44;3.07;;;1.00;;
5303;SDS011;2674;49.722;10.892;2022-08-06T11:05:48;1.23;;;0.60;;
5303;SDS011;2674;49.722;10.892;2022-08-06T11:14:04;1.03;;;0.90;;
5303;SDS011;2674;49.722;10.892;2022-08-06T11:16:33;1.47;;;0.83;;
5303;SDS011;2674;49.722;10.892;2022-08-06T11:19:08;1.37;;;0.83;;
5303;SDS011;2674;49.722;10.892;2022-08-06T11:21:36;2.93;;;0.73;;
5303;SDS011;2674;49.722;10.892;2022-08-06T11:24:03;3.70;;;1.00;;
5303;SDS011;2674;49.722;10.892;2022-08-06T11:26:31;0.90;;;0.90;;
5303;SDS011;2674;49.722;10.892;2022-08-06T11:29:00;3.60;;;0.87;;
5303;SDS011;2674;49.722;10.892;2022-08-06T11:31:45;3.23;;;0.70;;
5303;SDS011;2674;49.722;10.892;2022-08-06T11:34:17;0.70;;;0.70;;
5303;SDS011;2674;49.722;10.892;2022-08-06T11:36:46;0.93;;;0.60;;
5303;SDS011;2674;49.722;10.892;2022-08-06T11:39:14;0.80;;;0.80;;
5303;SDS011;2674;49.722;10.892;2022-08-06T11:42:00;4.13;;;1.00;;
5303;SDS011;2674;49.722;10.892;2022-08-06T11:44:28;0.93;;;0.70;;
5303;SDS011;2674;49.722;10.892;2022-08-06T11:49:39;2.57;;;0.70;;
5303;SDS011;2674;49.722;10.892;2022-08-06T11:52:07;2.30;;;0.53;;
5303;SDS011;2674;49.722;10.892;2022-08-06T11:54:34;7.10;;;0.73;;
5303;SDS011;2674;49.722;10.892;2022-08-06T12:01:58;1.00;;;0.67;;
5303;SDS011;2674;49.722;10.892;2022-08-06T12:10:07;2.30;;;0.80;;
5303;SDS011;2674;49.722;10.892;2022-08-06T12:12:36;1.20;;;0.70;;
5303;SDS011;2674;49.722;10.892;2022-08-06T12:17:41;1.70;;;0.90;;
5303;SDS011;2674;49.722;10.892;2022-08-06T12:20:30;1.57;;;0.63;;
5303;SDS011;2674;49.722;10.892;2022-08-06T12:23:01;1.00;;;0.67;;
5303;SDS011;2674;49.722;10.892;2022-08-06T12:25:31;0.60;;;0.60;;
5303;SDS011;2674;49.722;10.892;2022-08-06T12:27:58;1.07;;;0.40;;
5303;SDS011;2674;49.722;10.892;2022-08-06T12:30:25;1.80;;;0.60;;
5303;SDS011;2674;49.722;10.892;2022-08-06T12:33:02;0.70;;;0.70;;
5303;SDS011;2674;49.722;10.892;2022-08-06T12:35:28;0.83;;;0.60;;
5303;SDS011;2674;49.722;10.892;2022-08-06T12:37:54;1.23;;;0.60;;
5303;SDS011;2674;49.722;10.892;2022-08-06T12:40:21;1.70;;;0.60;;
5303;SDS011;2674;49.722;10.892;2022-08-06T12:45:28;2.50;;;0.60;;
5303;SDS011;2674;49.722;10.892;2022-08-06T12:48:03;5.50;;;0.80;;
5303;SDS011;2674;49.722;10.892;2022-08-06T12:50:43;2.17;;;0.70;;
5303;SDS011;2674;49.722;10.892;2022-08-06T12:55:46;1.87;;;1.03;;
5303;SDS011;2674;49.722;10.892;2022-08-06T12:58:17;0.40;;;0.40;;
5303;SDS011;2674;49.722;10.892;2022-08-06T13:00:46;2.40;;;0.63;;
5303;SDS011;2674;49.722;10.892;2022-08-06T13:03:16;0.50;;;0.40;;
5303;SDS011;2674;49.722;10.892;2022-08-06T13:05:43;1.03;;;0.70;;
5303;SDS011;2674;49.722;10.892;2022-08-06T13:08:10;2.53;;;0.97;;
5303;SDS011;2674;49.722;10.892;2022-08-06T13:10:37;5.43;;;0.80;;
5303;SDS011;2674;49.722;10.892;2022-08-06T13:13:05;0.50;;;0.50;;
5303;SDS011;2674;49.722;10.892;2022-08-06T13:15:35;0.93;;;0.60;;
5303;SDS011;2674;49.722;10.892;2022-08-06T13:18:10;1.60;;;0.60;;
5303;SDS011;2674;49.722;10.892;2022-08-06T13:20:41;1.17;;;0.87;;
5303;SDS011;2674;49.722;10.892;2022-08-06T13:23:09;1.43;;;0.70;;
5303;SDS011;2674;49.722;10.892;2022-08-06T13:25:47;1.13;;;0.67;;
5303;SDS011;2674;49.722;10.892;2022-08-06T13:28:18;1.47;;;0.70;;
5303;SDS011;2674;49.722;10.892;2022-08-06T13:30:48;0.83;;;0.60;;
5303;SDS011;2674;49.722;10.892;2022-08-06T13:33:15;1.23;;;0.90;;
5303;SDS011;2674;49.722;10.892;2022-08-06T13:35:48;1.10;;;0.63;;
5303;SDS011;2674;49.722;10.892;2022-08-06T13:38:35;1.73;;;0.57;;
5303;SDS011;2674;49.722;10.892;2022-08-06T13:41:01;0.80;;;0.80;;
5303;SDS011;2674;49.722;10.892;2022-08-06T13:43:38;0.57;;;0.57;;
5303;SDS011;2674;49.722;10.892;2022-08-06T13:48:36;2.20;;;0.80;;
5303;SDS011;2674;49.722;10.892;2022-08-06T13:51:06;0.67;;;0.63;;
5303;SDS011;2674;49.722;10.892;2022-08-06T13:53:36;1.33;;;0.80;;
5303;SDS011;2674;49.722;10.892;2022-08-06T13:56:02;1.03;;;0.90;;
5303;SDS011;2674;49.722;10.892;2022-08-06T13:58:28;2.83;;;0.70;;
5303;SDS011;2674;49.722;10.892;2022-08-06T14:00:54;1.43;;;0.53;;
5303;SDS011;2674;49.722;10.892;2022-08-06T14:03:20;0.75;;;0.65;;
5303;SDS011;2674;49.722;10.892;2022-08-06T14:05:46;0.83;;;0.60;;
5303;SDS011;2674;49.722;10.892;2022-08-06T14:08:12;2.00;;;0.70;;
5303;SDS011;2674;49.722;10.892;2022-08-06T14:10:39;1.70;;;0.77;;
5303;SDS011;2674;49.722;10.892;2022-08-06T14:13:05;0.50;;;0.50;;
5303;SDS011;2674;49.722;10.892;2022-08-06T14:15:44;0.83;;;0.80;;
5303;SDS011;2674;49.722;10.892;2022-08-06T14:18:13;0.70;;;0.50;;
5303;SDS011;2674;49.722;10.892;2022-08-06T14:20:39;0.40;;;0.40;;
5303;SDS011;2674;49.722;10.892;2022-08-06T14:23:05;1.40;;;0.67;;
5303;SDS011;2674;49.722;10.892;2022-08-06T14:25:31;0.67;;;0.50;;
5303;SDS011;2674;49.722;10.892;2022-08-06T14:27:58;2.17;;;0.50;;
5303;SDS011;2674;49.722;10.892;2022-08-06T14:30:24;1.30;;;0.60;;
5303;SDS011;2674;49.722;10.892;2022-08-06T14:32:50;1.67;;;0.80;;
5303;SDS011;2674;49.722;10.892;2022-08-06T14:35:16;1.80;;;0.40;;
5303;SDS011;2674;49.722;10.892;2022-08-06T14:37:43;0.60;;;0.60;;
5303;SDS011;2674;49.722;10.892;2022-08-06T14:40:09;0.80;;;0.50;;
5303;SDS011;2674;49.722;10.892;2022-08-06T14:42:37;3.53;;;0.80;;
5303;SDS011;2674;49.722;10.892;2022-08-06T14:45:21;0.50;;;0.50;;
5303;SDS011;2674;49.722;10.892;2022-08-06T14:47:48;5.13;;;1.20;;
5303;SDS011;2674;49.722;10.892;2022-08-06T14:50:14;2.50;;;0.80;;
5303;SDS011;2674;49.722;10.892;2022-08-06T14:52:40;0.67;;;0.50;;
5303;SDS011;2674;49.722;10.892;2022-08-06T14:55:07;3.33;;;0.70;;
5303;SDS011;2674;49.722;10.892;2022-08-06T14:57:35;2.20;;;0.80;;
5303;SDS011;2674;49.722;10.892;2022-08-06T15:00:05;1.60;;;0.60;;
5303;SDS011;2674;49.722;10.892;2022-08-06T15:02:32;0.70;;;0.60;;
5303;SDS011;2674;49.722;10.892;2022-08-06T15:04:59;1.23;;;0.63;;
5303;SDS011;2674;49.722;10.892;2022-08-06T15:07:25;7.40;;;1.20;;
5303;SDS011;2674;49.722;10.892;2022-08-06T15:09:52;7.93;;;0.90;;
5303;SDS011;2674;49.722;10.892;2022-08-06T15:12:18;1.00;;;0.50;;
5303;SDS011;2674;49.722;10.892;2022-08-06T15:14:44;0.93;;;0.57;;
5303;SDS011;2674;49.722;10.892;2022-08-06T15:17:10;1.80;;;0.70;;
5303;SDS011;2674;49.722;10.892;2022-08-06T15:19:36;2.20;;;0.50;;
5303;SDS011;2674;49.722;10.892;2022-08-06T15:22:02;0.90;;;0.50;;
5303;SDS011;2674;49.722;10.892;2022-08-06T15:24:28;0.57;;;0.50;;
5303;SDS011;2674;49.722;10.892;2022-08-06T15:26:54;1.37;;;0.60;;
5303;SDS011;2674;49.722;10.892;2022-08-06T15:29:23;1.03;;;0.70;;
5303;SDS011;2674;49.722;10.892;2022-08-06T15:31:49;1.00;;;0.70;;
5303;SDS011;2674;49.722;10.892;2022-08-06T15:34:15;4.73;;;0.73;;
5303;SDS011;2674;49.722;10.892;2022-08-06T15:36:41;8.03;;;0.70;;
5303;SDS011;2674;49.722;10.892;2022-08-06T15:39:07;0.93;;;0.60;;
5303;SDS011;2674;49.722;10.892;2022-08-06T15:41:33;4.47;;;0.60;;
5303;SDS011;2674;49.722;10.892;2022-08-06T15:43:59;4.18;;;0.60;;
5303;SDS011;2674;49.722;10.892;2022-08-06T15:46:25;6.30;;;0.90;;
5303;SDS011;2674;49.722;10.892;2022-08-06T15:48:51;8.20;;;0.70;;
5303;SDS011;2674;49.722;10.892;2022-08-06T15:51:24;11.63;;;0.80;;
5303;SDS011;2674;49.722;10.892;2022-08-06T15:53:53;2.00;;;0.50;;
5303;SDS011;2674;49.722;10.892;2022-08-06T15:56:19;0.90;;;0.40;;
5303;SDS011;2674;49.722;10.892;2022-08-06T15:58:45;4.93;;;0.80;;
5303;SDS011;2674;49.722;10.892;2022-08-06T16:01:11;60.23;;;4.33;;
5303;SDS011;2674;49.722;10.892;2022-08-06T16:03:38;9.30;;;0.80;;
5303;SDS011;2674;49.722;10.892;2022-08-06T16:06:04;2.80;;;0.70;;
5303;SDS011;2674;49.722;10.892;2022-08-06T16:08:30;10.77;;;0.80;;
5303;SDS011;2674;49.722;10.892;2022-08-06T16:10:57;0.50;;;0.50;;
5303;SDS011;2674;49.722;10.892;2022-08-06T16:13:23;0.73;;;0.67;;
5303;SDS011;2674;49.722;10.892;2022-08-06T16:15:50;1.80;;;0.63;;
5303;SDS011;2674;49.722;10.892;2022-08-06T16:18:17;0.60;;;0.60;;
5303;SDS011;2674;49.722;10.892;2022-08-06T16:20:45;3.20;;;0.60;;
5303;SDS011;2674;49.722;10.892;2022-08-06T16:23:12;2.00;;;0.50;;
5303;SDS011;2674;49.722;10.892;2022-08-06T16:25:39;10.93;;;1.40;;
5303;SDS011;2674;49.722;10.892;2022-08-06T16:28:06;0.50;;;0.50;;
5303;SDS011;2674;49.722;10.892;2022-08-06T16:30:32;0.60;;;0.60;;
5303;SDS011;2674;49.722;10.892;2022-08-06T16:32:59;0.70;;;0.70;;
5303;SDS011;2674;49.722;10.892;2022-08-06T16:35:25;1.40;;;1.30;;
5303;SDS011;2674;49.722;10.892;2022-08-06T16:37:51;0.73;;;0.50;;